Time;durP1;ratioP1;P1;durP2;ratioP2;P2;SDS_P1;SDS_P2;PMS_P1;PMS_P2;Temp;Humidity;BMP_temperature;BMP_pressure;BME280_temperature;BME280_humidity;BME280_pressure;Samples;Min_cycle;Max_cycle;Signal;HPM_P1;HPM_P2
2022/01/31 00:02:18;;;;;;;4.00;1.52;;;;;;;17.38;52.04;97056.03;10287620;28;20039;-20
2022/01/31 00:07:18;;;;;;;4.55;1.38;;;;;;;17.38;52.04;97043.38;10287576;28;20049;-20
2022/01/31 00:12:20;;;;;;;5.65;0.77;;;;;;;17.39;51.93;97017.22;10287399;28;20035;-20
2022/01/31 00:17:21;;;;;;;2.90;0.73;;;;;;;17.33;51.96;96997.75;10287292;28;20042;-20
2022/01/31 00:22:21;;;;;;;1.60;0.75;;;;;;;17.40;52.25;97004.59;10286592;28;20054;-20
2022/01/31 00:27:22;;;;;;;2.67;0.90;;;;;;;17.40;52.29;96988.59;10296496;28;20129;-20
2022/01/31 00:32:22;;;;;;;2.22;0.75;;;;;;;17.40;52.27;96984.34;10326862;28;20042;-21
2022/01/31 00:37:23;;;;;;;3.47;1.10;;;;;;;17.22;52.05;96952.94;10300697;28;20135;-20
2022/01/31 00:42:25;;;;;;;2.67;1.13;;;;;;;17.38;52.17;96995.28;10284516;28;20042;-20
2022/01/31 00:47:30;;;;;;;3.83;0.90;;;;;;;17.42;52.15;97014.75;10301003;28;20125;-20
2022/01/31 00:52:30;;;;;;;2.55;1.27;;;;;;;17.43;52.29;97013.91;10286327;28;20026;-20
2022/01/31 00:57:30;;;;;;;1.43;0.70;;;;;;;17.43;52.26;97024.03;10287679;28;20045;-20
2022/01/31 01:02:32;;;;;;;2.78;0.80;;;;;;;17.43;52.63;97034.16;10285171;28;20398;-21
2022/01/31 01:07:33;;;;;;;3.90;1.27;;;;;;;17.43;52.09;97034.16;10289762;28;20045;-21
2022/01/31 01:12:33;;;;;;;2.13;0.85;;;;;;;17.40;52.43;97027.38;10308009;28;20730;-20
2022/01/31 01:17:34;;;;;;;2.17;0.90;;;;;;;17.42;52.48;97023.16;10293219;28;20038;-20
2022/01/31 01:22:34;;;;;;;2.10;0.98;;;;;;;17.42;52.56;96989.44;10294207;28;20035;-20
2022/01/31 01:27:35;;;;;;;4.67;1.03;;;;;;;17.43;52.31;96969.22;10320034;28;20030;-20
2022/01/31 01:32:45;;;;;;;1.70;0.60;;;;;;;17.42;52.35;96966.66;10332005;28;20030;-20
2022/01/31 01:37:47;;;;;;;3.17;1.00;;;;;;;17.44;52.22;96944.72;10308174;28;20118;-20
2022/01/31 01:42:47;;;;;;;2.63;0.80;;;;;;;17.44;52.71;96934.59;10291357;28;20125;-20
2022/01/31 01:47:49;;;;;;;2.35;0.95;;;;;;;17.44;52.22;96925.34;10291369;28;20059;-20
2022/01/31 01:52:51;;;;;;;2.38;0.68;;;;;;;17.44;52.37;96921.94;10291529;28;20027;-20
2022/01/31 01:57:52;;;;;;;2.35;0.77;;;;;;;17.45;52.30;96898.34;10308807;28;20038;-20
2022/01/31 02:02:55;;;;;;;2.05;0.95;;;;;;;17.44;52.31;96911.81;10290911;28;20521;-20
2022/01/31 02:07:55;;;;;;;1.35;0.68;;;;;;;17.43;52.42;96878.09;10290632;28;20035;-20
2022/01/31 02:13:04;;;;;;;1.05;0.57;;;;;;;17.42;52.37;96873.00;10289908;28;20039;-20
2022/01/31 02:18:27;;;;;;;1.10;0.50;;;;;;;17.43;52.39;96836.75;10290746;28;20047;-21
2022/01/31 02:23:29;;;;;;;3.35;0.85;;;;;;;17.42;52.48;96822.41;10328291;28;20041;-20
2022/01/31 02:28:51;;;;;;;2.53;0.70;;;;;;;17.43;52.51;96793.72;10320897;28;20129;-20
2022/01/31 02:33:51;;;;;;;3.70;0.50;;;;;;;17.42;52.63;96787.78;10330086;28;20030;-20
2022/01/31 02:38:52;;;;;;;1.17;0.60;;;;;;;17.39;52.60;96754.03;10298484;28;20105;-20
2022/01/31 02:43:54;;;;;;;0.90;0.50;;;;;;;17.42;52.59;96766.72;10290843;28;20098;-20
2022/01/31 02:48:58;;;;;;;1.35;0.43;;;;;;;17.43;52.64;96776.84;10305221;28;20328;-21
2022/01/31 02:53:58;;;;;;;1.13;0.50;;;;;;;17.46;52.55;96796.25;10289139;28;20022;-21
2022/01/31 02:58:59;;;;;;;2.27;1.30;;;;;;;17.44;52.53;96797.94;10289380;28;20042;-20
2022/01/31 03:03:59;;;;;;;2.22;0.68;;;;;;;17.46;52.52;96806.38;10287651;28;20034;-20
2022/01/31 03:09:00;;;;;;;1.37;0.57;;;;;;;17.46;52.47;96776.00;10290623;28;20393;-21
2022/01/31 03:14:09;;;;;;;2.85;0.80;;;;;;;17.44;52.67;96757.44;10295124;28;20034;-20
2022/01/31 03:19:16;;;;;;;3.55;0.85;;;;;;;17.43;52.41;96756.63;10287292;28;20039;-20
2022/01/31 03:24:19;;;;;;;2.40;0.95;;;;;;;17.41;52.58;96732.97;10303580;28;20038;-21
2022/01/31 03:29:20;;;;;;;1.43;0.70;;;;;;;17.42;52.50;96723.69;10318492;28;20034;-20
2022/01/31 03:34:20;;;;;;;1.70;0.73;;;;;;;17.44;52.47;96727.06;10316921;28;20035;-20
2022/01/31 03:39:21;;;;;;;2.25;1.13;;;;;;;17.45;52.77;96711.03;10302305;28;20631;-20
2022/01/31 03:44:21;;;;;;;0.95;0.40;;;;;;;17.42;52.79;96668.84;10301479;28;20039;-21
2022/01/31 03:49:26;;;;;;;1.67;0.55;;;;;;;17.42;52.70;96668.03;10286355;28;20030;-20
2022/01/31 03:54:37;;;;;;;0.88;0.50;;;;;;;17.46;52.95;96650.31;10301602;28;20125;-20
2022/01/31 03:59:37;;;;;;;1.75;0.95;;;;;;;17.47;52.51;96628.38;10300491;28;20046;-21
2022/01/31 04:04:39;;;;;;;3.92;0.98;;;;;;;17.46;52.88;96639.34;10286045;28;20045;-20
2022/01/31 04:09:39;;;;;;;1.30;0.63;;;;;;;17.47;53.01;96625.84;10287438;28;20035;-21
2022/01/31 04:14:39;;;;;;;2.40;0.52;;;;;;;17.41;53.07;96621.59;10287302;28;20043;-20
2022/01/31 04:19:40;;;;;;;1.37;0.60;;;;;;;17.46;53.14;96616.56;10287131;28;20057;-20
2022/01/31 04:24:41;;;;;;;2.47;0.80;;;;;;;17.46;52.82;96619.94;10287707;28;20525;-20
2022/01/31 04:29:43;;;;;;;1.92;0.68;;;;;;;17.44;53.10;96611.50;10315826;28;20374;-21
2022/01/31 04:34:44;;;;;;;1.80;0.77;;;;;;;17.45;52.94;96623.31;10327155;28;20038;-20
2022/01/31 04:39:44;;;;;;;1.63;0.60;;;;;;;17.46;52.82;96603.91;10290267;28;20047;-20
2022/01/31 04:44:45;;;;;;;2.43;0.60;;;;;;;17.48;52.99;96587.88;10295522;28;20045;-21
2022/01/31 04:49:45;;;;;;;1.67;0.50;;;;;;;17.49;53.04;96591.28;10294478;28;20034;-20
2022/01/31 04:54:45;;;;;;;1.20;0.50;;;;;;;17.49;52.87;96548.25;10328538;28;20038;-21
2022/01/31 04:59:48;;;;;;;2.00;0.80;;;;;;;17.52;52.98;96548.25;10342698;28;20054;-20
2022/01/31 05:04:48;;;;;;;3.28;1.10;;;;;;;17.52;52.70;96533.06;10334321;28;20056;-20
2022/01/31 05:09:49;;;;;;;3.90;0.80;;;;;;;17.53;52.76;96539.78;10294606;28;20035;-20
2022/01/31 05:14:49;;;;;;;3.23;0.93;;;;;;;17.52;52.81;96528.00;10302611;28;20404;-22
2022/01/31 05:19:49;;;;;;;1.47;0.60;;;;;;;17.51;52.69;96511.94;10326918;28;20036;-20
2022/01/31 05:24:50;;;;;;;0.90;0.60;;;;;;;17.50;52.74;96504.38;10335778;28;20038;-19
2022/01/31 05:29:50;;;;;;;3.57;0.50;;;;;;;17.55;52.68;96487.47;10332157;28;20052;-20
2022/01/31 05:34:50;;;;;;;2.70;1.00;;;;;;;17.54;52.70;96486.66;10327296;28;20684;-20
2022/01/31 05:39:51;;;;;;;1.67;0.60;;;;;;;17.55;52.58;96484.94;10328230;28;20309;-20
2022/01/31 05:44:51;;;;;;;1.80;0.77;;;;;;;17.55;52.69;96472.28;10313885;28;20464;-20
2022/01/31 05:49:51;;;;;;;1.03;0.40;;;;;;;17.54;52.68;96465.56;10338435;28;20106;-18
2022/01/31 05:54:52;;;;;;;1.43;0.43;;;;;;;17.47;52.59;96453.72;10318759;28;20041;-20
2022/01/31 05:59:52;;;;;;;2.40;0.93;;;;;;;17.57;52.58;96483.28;10312630;28;20042;-20
2022/01/31 06:04:52;;;;;;;2.53;0.60;;;;;;;17.53;52.32;96463.88;10316879;28;20680;-20
2022/01/31 06:09:53;;;;;;;3.83;0.90;;;;;;;17.56;52.26;96462.19;10329301;28;20535;-20
2022/01/31 06:14:53;;;;;;;1.83;0.67;;;;;;;17.54;52.46;96458.81;10335675;28;20527;-19
2022/01/31 06:19:53;;;;;;;1.30;0.53;;;;;;;17.51;52.55;96430.13;10348818;28;20033;-19
2022/01/31 06:24:54;;;;;;;6.43;0.93;;;;;;;17.50;52.50;96418.31;10349193;28;20029;-20
2022/01/31 06:30:06;;;;;;;2.30;0.65;;;;;;;17.54;52.48;96402.28;10353904;28;20026;-19
2022/01/31 06:35:08;;;;;;;4.25;0.70;;;;;;;17.44;52.44;96376.16;10345785;28;20037;-20
2022/01/31 06:40:09;;;;;;;3.42;0.98;;;;;;;17.55;52.36;96373.59;10333989;28;20046;-20
2022/01/31 06:45:10;;;;;;;9.05;1.15;;;;;;;17.58;52.25;96348.28;10311029;28;20038;-20
2022/01/31 06:50:10;;;;;;;1.85;0.82;;;;;;;17.61;51.91;96356.72;10335122;28;20154;-20
2022/01/31 06:55:19;;;;;;;7.90;1.23;;;;;;;17.66;51.44;96364.28;10369183;28;20044;-20
2022/01/31 07:00:21;;;;;;;14.57;1.70;;;;;;;17.52;50.81;96331.44;10294284;28;20776;-15
2022/01/31 07:05:22;;;;;;;6.88;1.58;;;;;;;17.55;51.77;96341.53;10293781;28;20050;-20
2022/01/31 07:10:22;;;;;;;7.50;1.75;;;;;;;17.63;52.14;96349.09;10295899;28;20046;-19
2022/01/31 07:15:22;;;;;;;5.93;1.37;;;;;;;17.62;51.95;96357.53;10310511;28;20113;-20
2022/01/31 07:20:34;;;;;;;6.30;1.60;;;;;;;17.56;52.50;96367.69;10294650;28;20868;-20
2022/01/31 07:25:35;;;;;;;6.90;1.75;;;;;;;17.57;52.62;96359.25;10294180;28;20255;-20
2022/01/31 07:30:37;;;;;;;9.18;1.33;;;;;;;17.53;52.84;96366.00;10328189;28;20468;-20
2022/01/31 07:35:39;;;;;;;10.30;1.88;;;;;;;17.63;52.32;96374.41;10311754;28;20444;-20
2022/01/31 07:40:40;;;;;;;4.22;1.17;;;;;;;17.58;52.61;96381.19;10288400;28;20034;-20
2022/01/31 07:45:40;;;;;;;8.10;1.10;;;;;;;17.59;52.90;96372.75;10290282;28;20031;-20
2022/01/31 07:50:40;;;;;;;6.68;1.20;;;;;;;17.59;52.98;96380.34;10288642;28;20034;-19
2022/01/31 07:55:41;;;;;;;8.70;1.30;;;;;;;17.66;52.51;96328.84;10289041;28;20139;-20
2022/01/31 08:00:41;;;;;;;5.17;1.00;;;;;;;17.59;52.81;96350.78;10288003;28;20210;-20
2022/01/31 08:05:42;;;;;;;4.63;1.33;;;;;;;17.56;53.08;96362.63;10288255;28;20301;-21
2022/01/31 08:10:43;;;;;;;4.38;1.00;;;;;;;17.55;53.24;96368.53;10289315;28;20070;-20
2022/01/31 08:15:49;;;;;;;4.68;1.00;;;;;;;17.56;53.01;96352.50;10287646;28;20046;-21
2022/01/31 08:20:49;;;;;;;4.47;1.20;;;;;;;17.53;53.36;96347.44;10287004;28;20031;-21
2022/01/31 08:25:51;;;;;;;4.60;1.10;;;;;;;17.55;53.35;96354.19;10287501;28;20041;-20
2022/01/31 08:31:05;;;;;;;1.88;0.88;;;;;;;17.46;53.63;96351.69;10324824;28;20133;-20
2022/01/31 08:36:08;;;;;;;7.30;1.10;;;;;;;17.54;53.38;96339.00;10304233;28;20050;-20
2022/01/31 08:41:10;;;;;;;8.88;1.27;;;;;;;17.49;53.61;96325.53;10286224;28;20043;-20
2022/01/31 08:46:13;;;;;;;3.22;0.80;;;;;;;17.48;53.72;96357.56;10286475;28;20498;-20
2022/01/31 08:51:13;;;;;;;4.47;1.02;;;;;;;17.42;53.67;96332.28;10285967;28;20034;-20
2022/01/31 08:56:14;;;;;;;2.20;0.80;;;;;;;17.53;53.43;96357.56;10288137;28;20023;-20
2022/01/31 09:01:22;;;;;;;16.10;2.30;;;;;;;17.52;53.49;96359.28;10285725;28;20046;-20
2022/01/31 09:06:25;;;;;;;3.50;0.95;;;;;;;17.49;53.53;96382.03;10286273;28;20540;-20
2022/01/31 09:11:27;;;;;;;2.75;0.70;;;;;;;17.51;53.45;96369.38;10286544;28;20089;-20
2022/01/31 09:16:27;;;;;;;1.60;0.60;;;;;;;17.51;53.65;96359.25;10286939;28;20118;-20
2022/01/31 09:21:27;;;;;;;1.70;0.52;;;;;;;17.52;53.29;96350.81;10286607;28;20035;-20
2022/01/31 09:26:28;;;;;;;2.50;0.67;;;;;;;17.52;53.59;96351.69;10290695;28;20060;-20
2022/01/31 09:31:29;;;;;;;4.75;0.98;;;;;;;17.50;53.88;96329.75;10306835;28;20030;-20
2022/01/31 09:36:29;;;;;;;4.75;0.68;;;;;;;17.47;53.72;96322.13;10310524;28;20104;-21
2022/01/31 09:41:32;;;;;;;19.90;2.20;;;;;;;17.48;53.94;96329.75;10297505;28;20098;-21
2022/01/31 09:51:33;;;;;;;1.48;0.60;;;;;;;17.54;53.54;96371.91;10320906;28;20197;-20
2022/01/31 09:56:37;;;;;;;6.67;1.27;;;;;;;17.56;53.39;96428.44;10294133;28;20030;-20
2022/01/31 10:01:46;;;;;;;5.15;1.90;;;;;;;17.56;53.42;96447.00;10303311;28;20683;-20
2022/01/31 10:06:49;;;;;;;2.67;1.50;;;;;;;17.60;53.30;96430.13;10331347;28;20566;-21
2022/01/31 10:17:26;;;;;;;7.47;1.20;;;;;;;17.58;53.57;96434.34;10319915;28;20497;-22
2022/01/31 10:22:29;;;;;;;5.28;1.60;;;;;;;17.61;53.18;96441.94;10330603;28;20386;-21
2022/01/31 10:27:34;;;;;;;6.00;1.27;;;;;;;17.59;53.14;96423.38;10302100;28;20438;-22
2022/01/31 10:32:37;;;;;;;4.85;1.00;;;;;;;17.62;53.12;96406.50;10331159;28;20034;-21
2022/01/31 10:37:42;;;;;;;5.00;2.08;;;;;;;17.60;53.21;96404.81;10303235;28;20109;-22
2022/01/31 10:53:25;;;;;;;6.20;0.95;;;;;;;17.68;53.27;96408.16;10290232;28;20401;-21
2022/01/31 10:58:27;;;;;;;4.15;1.20;;;;;;;17.84;52.51;96399.69;10291062;28;20046;-21
2022/01/31 11:03:31;;;;;;;9.10;1.67;;;;;;;17.57;48.06;96403.13;10289882;28;20290;-16
2022/01/31 11:08:32;;;;;;;7.55;1.30;;;;;;;17.41;52.55;96398.91;10287168;28;20027;-21
2022/01/31 11:13:34;;;;;;;3.07;1.27;;;;;;;17.55;52.44;96391.31;10289514;28;20039;-21
2022/01/31 11:18:35;;;;;;;3.13;1.10;;;;;;;17.64;52.68;96407.31;10290352;28;20141;-21
2022/01/31 11:23:39;;;;;;;7.03;1.13;;;;;;;17.66;53.00;96414.94;10288631;28;20031;-22
2022/01/31 11:28:41;;;;;;;2.92;1.00;;;;;;;17.70;52.94;96409.00;10309299;28;20069;-21
2022/01/31 11:33:43;;;;;;;5.22;1.30;;;;;;;17.63;52.83;96409.84;10329281;28;20077;-18
2022/01/31 11:38:44;;;;;;;5.30;1.40;;;;;;;17.55;52.77;96391.31;10296538;28;20070;-21
2022/01/31 11:43:56;;;;;;;5.47;1.00;;;;;;;17.69;52.95;96410.69;10288842;28;20038;-21
2022/01/31 11:48:57;;;;;;;3.60;0.90;;;;;;;17.64;51.11;96411.53;10287173;28;20492;-21
2022/01/31 11:54:06;;;;;;;3.13;1.23;;;;;;;17.72;52.95;96415.75;10287479;28;20267;-22
2022/01/31 11:59:12;;;;;;;4.95;1.08;;;;;;;17.71;53.00;96419.13;10288393;28;20211;-21
2022/01/31 12:04:13;;;;;;;5.30;1.45;;;;;;;17.71;53.77;96423.34;10287058;28;20402;-21
2022/01/31 12:09:20;;;;;;;5.47;0.98;;;;;;;17.75;53.72;96425.03;10285493;28;20042;-22
2022/01/31 12:14:26;;;;;;;3.53;1.20;;;;;;;17.74;53.64;96420.81;10287276;28;20031;-21
2022/01/31 12:24:44;;;;;;;4.28;1.13;;;;;;;17.62;53.38;96383.72;10286845;28;20061;-21
2022/01/31 12:29:50;;;;;;;6.65;1.17;;;;;;;17.69;53.31;96404.78;10315915;28;20081;-22
2022/01/31 12:34:56;;;;;;;4.43;1.13;;;;;;;17.72;53.58;96425.03;10310455;28;20387;-21
2022/01/31 12:40:08;;;;;;;17.23;1.25;;;;;;;17.71;53.78;96444.44;10286609;28;20054;-21
2022/01/31 12:45:17;;;;;;;5.05;1.63;;;;;;;17.74;53.42;96428.41;10287276;28;20093;-23
2022/01/31 12:50:22;;;;;;;9.25;1.50;;;;;;;17.75;53.56;96432.63;10286368;28;20031;-21
2022/01/31 12:55:27;;;;;;;6.03;2.15;;;;;;;17.63;53.83;96422.50;10322332;28;20035;-21
2022/01/31 13:00:45;;;;;;;6.95;1.00;;;;;;;17.72;53.66;96422.50;10313777;28;20039;-21
2022/01/31 13:05:45;;;;;;;5.45;1.00;;;;;;;17.74;53.55;96400.56;10321213;28;20125;-21
2022/01/31 13:10:46;;;;;;;1.70;0.73;;;;;;;17.73;53.75;96417.44;10294980;28;20353;-22
2022/01/31 13:15:47;;;;;;;5.43;1.58;;;;;;;17.74;53.58;96434.31;10294661;28;20369;-21
2022/01/31 13:20:49;;;;;;;2.97;0.90;;;;;;;17.71;53.66;96436.00;10294085;28;20509;-21
2022/01/31 13:25:57;;;;;;;4.45;0.90;;;;;;;17.77;53.31;96444.44;10294342;28;20085;-23
2022/01/31 13:31:09;;;;;;;12.43;1.73;;;;;;;17.70;53.80;96452.91;10331028;28;20026;-21
2022/01/31 13:36:11;;;;;;;7.68;1.23;;;;;;;17.62;53.76;96438.53;10307199;28;20041;-21
2022/01/31 13:41:15;;;;;;;8.38;1.33;;;;;;;17.59;53.86;96421.66;10292779;28;20053;-21
2022/01/31 13:51:33;;;;;;;4.07;1.10;;;;;;;17.57;53.88;96385.41;10292611;28;20038;-22
2022/01/31 13:56:36;;;;;;;8.45;1.60;;;;;;;17.49;54.06;96386.28;10294423;28;20117;-22
2022/01/31 14:01:36;;;;;;;5.70;1.40;;;;;;;17.57;54.11;96384.56;10292508;28;20043;-21
2022/01/31 14:06:38;;;;;;;2.78;0.90;;;;;;;17.60;54.06;96404.81;10292529;28;20413;-21
2022/01/31 14:11:44;;;;;;;3.88;1.30;;;;;;;17.58;53.99;96392.13;10291887;28;20041;-22
2022/01/31 14:16:44;;;;;;;3.50;0.60;;;;;;;17.55;53.67;96378.66;10292511;28;20046;-21
2022/01/31 14:21:46;;;;;;;3.45;0.98;;;;;;;17.57;54.17;96399.75;10292271;28;20371;-22
2022/01/31 14:26:52;;;;;;;2.83;0.95;;;;;;;17.60;54.16;96407.34;10297643;28;20038;-22
2022/01/31 14:31:54;;;;;;;4.38;0.98;;;;;;;17.58;53.99;96411.56;10332240;28;20084;-21
2022/01/31 14:37:00;;;;;;;2.15;0.98;;;;;;;17.54;54.05;96409.88;10313098;28;20074;-22
2022/01/31 14:42:27;;;;;;;;;;;;;;;17.58;54.14;96427.56;10291026;28;20114;-22
2022/01/31 14:47:27;;;;;;;1.52;0.73;;;;;;;17.50;53.86;96424.22;10291452;28;19914;-21
2022/01/31 14:52:27;;;;;;;2.97;0.83;;;;;;;17.61;53.67;96434.31;10290862;28;20477;-21
2022/01/31 14:57:28;;;;;;;4.95;1.08;;;;;;;17.63;53.64;96436.03;10292113;28;20045;-21
2022/01/31 15:02:32;;;;;;;2.37;0.70;;;;;;;17.63;53.67;96440.22;10289538;28;20043;-21
2022/01/31 15:07:33;;;;;;;8.52;1.70;;;;;;;16.87;45.89;96418.25;10289794;28;20429;-17
2022/01/31 15:12:33;;;;;;;2.80;0.88;;;;;;;17.42;52.31;96442.78;10289978;28;20033;-21
2022/01/31 15:17:36;;;;;;;1.93;0.90;;;;;;;17.53;52.46;96448.69;10289900;28;20035;-21
2022/01/31 15:22:37;;;;;;;7.80;1.33;;;;;;;17.58;52.67;96462.19;10288769;28;20035;-21
2022/01/31 15:27:37;;;;;;;5.95;1.13;;;;;;;17.62;52.72;96463.84;10300104;28;20069;-21
2022/01/31 15:32:37;;;;;;;3.57;0.87;;;;;;;17.62;53.03;96479.91;10308992;28;20037;-21
2022/01/31 15:37:38;;;;;;;4.50;0.80;;;;;;;17.79;52.62;96487.47;10308230;28;20297;-22
2022/01/31 15:42:39;;;;;;;10.98;1.23;;;;;;;17.82;52.51;96487.50;10311427;28;20404;-22
2022/01/31 15:47:39;;;;;;;10.52;1.77;;;;;;;17.96;52.00;96495.88;10319876;28;20137;-21
2022/01/31 15:52:40;;;;;;;8.13;2.00;;;;;;;18.01;51.98;96491.66;10312652;28;20062;-21
2022/01/31 15:57:41;;;;;;;11.23;2.00;;;;;;;17.92;52.44;96501.81;10309618;28;20289;-22
2022/01/31 16:02:43;;;;;;;9.20;1.15;;;;;;;17.81;53.00;96485.78;10321667;28;20125;-21
2022/01/31 16:07:44;;;;;;;13.52;1.52;;;;;;;17.79;52.98;96497.59;10315502;28;20034;-22
2022/01/31 16:12:45;;;;;;;7.68;1.50;;;;;;;17.69;49.64;96485.78;10325269;28;20517;-22
2022/01/31 16:17:45;;;;;;;13.85;2.45;;;;;;;17.77;53.00;96476.50;10318811;28;20485;-21
2022/01/31 16:22:45;;;;;;;10.75;2.08;;;;;;;17.79;52.71;96474.81;10317010;28;20057;-22
2022/01/31 16:27:47;;;;;;;10.07;1.60;;;;;;;17.77;52.51;96468.91;10300671;28;20042;-22
2022/01/31 16:32:48;;;;;;;5.38;2.03;;;;;;;17.83;52.25;96462.16;10325310;28;20280;-21
2022/01/31 16:37:50;;;;;;;5.82;1.33;;;;;;;17.88;52.30;96459.59;10310145;28;20528;-22
2022/01/31 16:42:50;;;;;;;8.50;1.13;;;;;;;18.03;51.91;96462.09;10296415;28;20043;-23
2022/01/31 16:47:52;;;;;;;7.70;1.70;;;;;;;18.19;51.80;96484.03;10303901;28;20039;-21
2022/01/31 16:52:53;;;;;;;7.70;1.52;;;;;;;18.06;52.29;96485.75;10319172;28;20108;-22
2022/01/31 16:57:56;;;;;;;10.18;1.73;;;;;;;18.14;52.00;96505.97;10304199;28;20413;-22
2022/01/31 17:02:57;;;;;;;5.45;2.42;;;;;;;17.75;48.77;96503.53;10334403;28;20038;-21
2022/01/31 17:08:00;;;;;;;8.68;2.35;;;;;;;17.81;46.17;96506.03;10306510;28;20541;-21
2022/01/31 17:13:00;;;;;;;7.82;1.35;;;;;;;17.73;51.37;96516.19;10308696;28;20035;-22
2022/01/31 17:18:00;;;;;;;10.10;2.28;;;;;;;17.85;51.32;96520.41;10293808;28;20494;-22
2022/01/31 17:23:01;;;;;;;11.17;2.37;;;;;;;17.88;51.64;96544.03;10292903;28;20046;-22
2022/01/31 17:28:02;;;;;;;11.30;1.50;;;;;;;17.93;51.06;96546.56;10308861;28;20036;-21
2022/01/31 17:33:02;;;;;;;5.75;1.20;;;;;;;17.93;51.61;96541.50;10327198;28;20290;-22
2022/01/31 17:38:02;;;;;;;9.93;2.03;;;;;;;17.92;51.98;96557.53;10328653;28;20390;-22
2022/01/31 17:43:05;;;;;;;12.10;2.17;;;;;;;17.95;52.11;96567.66;10313095;28;20564;-21
2022/01/31 17:48:08;;;;;;;9.25;1.38;;;;;;;18.08;51.93;96582.03;10319403;28;20516;-22
2022/01/31 17:53:08;;;;;;;10.13;1.70;;;;;;;17.97;52.16;96598.88;10314026;28;20038;-21
2022/01/31 17:58:09;;;;;;;13.95;2.28;;;;;;;18.00;52.42;96609.03;10316006;28;20042;-21
2022/01/31 18:03:09;;;;;;;7.47;1.40;;;;;;;18.03;52.28;96611.56;10324310;28;20104;-23
2022/01/31 18:08:10;;;;;;;16.30;2.78;;;;;;;18.02;52.84;96618.34;10319425;28;20065;-22
2022/01/31 18:13:10;;;;;;;12.37;2.00;;;;;;;17.91;53.29;96614.09;10320891;28;20416;-22
2022/01/31 18:18:10;;;;;;;11.60;2.47;;;;;;;17.93;53.13;96635.22;10327982;28;20118;-22
2022/01/31 18:23:11;;;;;;;14.80;4.13;;;;;;;17.88;53.34;96639.41;10316310;28;20040;-22
2022/01/31 18:28:16;;;;;;;8.93;1.63;;;;;;;17.87;53.50;96645.31;10322794;28;20034;-22
2022/01/31 18:33:18;;;;;;;10.80;2.37;;;;;;;17.92;53.57;96646.19;10331888;28;20049;-22
2022/01/31 18:38:18;;;;;;;6.07;1.70;;;;;;;17.99;53.71;96652.94;10302199;28;20129;-22
2022/01/31 18:43:19;;;;;;;10.77;4.27;;;;;;;18.07;53.55;96667.28;10302883;28;20441;-37
2022/01/31 18:48:24;;;;;;;8.00;2.55;;;;;;;18.18;53.32;96664.78;10290553;28;20429;-22
2022/01/31 18:53:25;;;;;;;9.93;2.35;;;;;;;18.16;53.35;96664.75;10290898;28;20034;-21
2022/01/31 18:58:25;;;;;;;11.90;2.20;;;;;;;18.26;52.97;96668.16;10295499;28;20056;-21
2022/01/31 19:03:27;;;;;;;9.50;2.08;;;;;;;18.07;53.28;96671.53;10320280;28;20616;-22
2022/01/31 19:08:27;;;;;;;5.97;1.90;;;;;;;18.09;53.21;96672.38;10317107;28;20113;-22
2022/01/31 19:14:14;;;;;;;5.67;2.37;;;;;;;18.07;53.15;96659.69;10312749;28;20026;-22
2022/01/31 19:18:52;;;;;;;6.85;2.00;;;;;;;18.02;53.81;96658.00;10323104;28;20058;-22
2022/01/31 19:23:53;;;;;;;4.22;1.88;;;;;;;18.00;53.37;96674.91;10317215;28;20448;-22
2022/01/31 19:28:54;;;;;;;12.18;2.78;;;;;;;18.00;53.51;96674.91;10304370;28;20092;-22
2022/01/31 19:33:55;;;;;;;7.47;2.53;;;;;;;18.00;53.73;96683.31;10321802;28;20113;-22
2022/01/31 19:39:00;;;;;;;12.68;2.60;;;;;;;18.02;53.95;96701.06;10306222;28;20115;-22
2022/01/31 19:44:01;;;;;;;10.57;2.60;;;;;;;17.99;54.09;96701.06;10288123;28;20421;-22
2022/01/31 19:49:01;;;;;;;7.87;2.03;;;;;;;17.95;54.00;96702.75;10315994;28;20042;-21
2022/01/31 19:54:02;;;;;;;6.85;2.30;;;;;;;17.99;53.88;96699.38;10292116;28;20161;-21
2022/01/31 19:59:02;;;;;;;8.37;2.40;;;;;;;17.98;53.96;96727.25;10289350;28;20038;-21
2022/01/31 20:04:03;;;;;;;5.57;1.58;;;;;;;18.02;53.55;96739.06;10287237;28;20301;-21
2022/01/31 20:09:09;;;;;;;8.05;1.85;;;;;;;17.96;53.64;96742.44;10287243;28;20038;-22
2022/01/31 20:14:10;;;;;;;7.97;2.05;;;;;;;17.95;53.68;96732.28;10286916;28;20061;-22
2022/01/31 20:19:11;;;;;;;4.35;1.70;;;;;;;17.96;53.60;96733.97;10319044;28;20426;-22
2022/01/31 20:24:11;;;;;;;5.87;1.60;;;;;;;18.04;53.38;96732.31;10303720;28;20042;-22
2022/01/31 20:29:11;;;;;;;6.50;2.27;;;;;;;18.01;54.59;96753.41;10309285;28;20823;-22
2022/01/31 20:34:12;;;;;;;9.87;2.20;;;;;;;18.07;55.06;96767.81;10292309;28;20057;-22
2022/01/31 20:39:18;;;;;;;6.00;2.10;;;;;;;18.06;55.79;96797.34;10287467;28;20049;-22
2022/01/31 20:44:20;;;;;;;6.87;2.40;;;;;;;18.34;53.93;96786.44;10286107;28;20043;-21
2022/01/31 20:49:21;;;;;;;5.95;2.28;;;;;;;18.25;54.55;96777.97;10286496;28;20477;-22
2022/01/31 20:54:21;;;;;;;4.28;1.50;;;;;;;18.09;54.74;96776.25;10286548;28;20038;-22
2022/01/31 20:59:22;;;;;;;4.93;1.75;;;;;;;18.08;54.68;96789.75;10288191;28;20105;-22
2022/01/31 21:04:22;;;;;;;5.10;1.90;;;;;;;18.09;54.62;96782.13;10286485;28;20102;-22
2022/01/31 21:09:26;;;;;;;6.85;2.00;;;;;;;18.06;54.47;96782.16;10286103;28;20046;-22
2022/01/31 21:14:27;;;;;;;3.97;1.50;;;;;;;18.06;54.12;96802.41;10312207;28;20027;-22
2022/01/31 21:19:27;;;;;;;7.18;1.60;;;;;;;18.11;54.16;96815.09;10322790;28;20409;-22
2022/01/31 21:24:28;;;;;;;5.07;1.90;;;;;;;18.07;54.52;96815.94;10328750;28;20038;-22
2022/01/31 21:29:28;;;;;;;2.97;1.50;;;;;;;18.07;54.37;96813.41;10324194;28;20121;-22
2022/01/31 21:34:29;;;;;;;3.92;1.45;;;;;;;18.11;54.21;96812.56;10323305;28;20042;-22
2022/01/31 21:39:29;;;;;;;4.97;1.93;;;;;;;18.06;54.42;96793.94;10293943;28;20402;-22
2022/01/31 21:44:30;;;;;;;5.97;1.73;;;;;;;18.07;54.10;96804.09;10292948;28;20294;-22
2022/01/31 21:49:30;;;;;;;6.40;1.63;;;;;;;18.06;54.18;96825.22;10308727;28;20112;-22
2022/01/31 21:54:31;;;;;;;4.80;1.63;;;;;;;18.02;54.22;96833.66;10333162;28;20041;-22
2022/01/31 21:59:31;;;;;;;6.18;1.73;;;;;;;18.04;54.31;96843.78;10295085;28;20867;-22
2022/01/31 22:04:32;;;;;;;6.72;2.53;;;;;;;18.03;54.25;96847.16;10292399;28;20038;-22
2022/01/31 22:09:32;;;;;;;4.03;1.53;;;;;;;18.04;54.46;96849.72;10291144;28;20043;-22
2022/01/31 22:14:33;;;;;;;3.70;1.65;;;;;;;18.05;54.16;96883.47;10291313;28;20234;-22
2022/01/31 22:19:33;;;;;;;10.07;1.57;;;;;;;18.06;54.44;96882.63;10291406;28;20057;-22
2022/01/31 22:24:33;;;;;;;5.90;1.40;;;;;;;17.99;54.32;96878.41;10290896;28;20047;-22
2022/01/31 22:29:34;;;;;;;6.07;1.80;;;;;;;18.04;54.26;96889.38;10318950;28;20038;-22
2022/01/31 22:34:35;;;;;;;6.90;1.52;;;;;;;18.01;54.43;96892.75;10326259;28;20165;-22
2022/01/31 22:39:35;;;;;;;5.60;2.78;;;;;;;18.08;54.24;96903.78;10291211;28;20042;-22
2022/01/31 22:44:36;;;;;;;7.70;2.00;;;;;;;18.08;54.29;96906.31;10290816;28;20406;-22
2022/01/31 22:49:36;;;;;;;4.83;1.67;;;;;;;18.04;54.28;96899.50;10290244;28;20037;-22
2022/01/31 22:54:37;;;;;;;6.75;1.48;;;;;;;18.06;54.24;96902.88;10290479;28;20078;-22
2022/01/31 22:59:38;;;;;;;8.02;1.70;;;;;;;17.90;54.38;96891.03;10291310;28;20526;-22
2022/01/31 23:04:39;;;;;;;6.35;2.08;;;;;;;18.04;54.29;96927.38;10290051;28;20035;-22
2022/01/31 23:09:40;;;;;;;5.40;1.30;;;;;;;18.07;54.23;96922.34;10289313;28;20035;-22
2022/01/31 23:14:46;;;;;;;5.70;1.60;;;;;;;18.05;54.49;96924.00;10288802;28;20031;-22
2022/01/31 23:58:59;;;;;;;2.57;1.03;;;;;;;17.92;54.57;96940.81;10290109;28;20062;-22
